createdAt,value
2018-06-04T00:00:20.457Z,47.83
2018-06-04T00:02:48.689Z,46.77
2018-06-04T00:05:17.589Z,52.47
2018-06-04T00:07:46.084Z,51.40
2018-06-04T00:10:14.677Z,49.50
2018-06-04T00:12:42.927Z,51.43
2018-06-04T00:15:11.849Z,53.63
2018-06-04T00:17:40.425Z,54.87
2018-06-04T00:20:12.889Z,57.97
2018-06-04T00:22:41.526Z,52.13
2018-06-04T00:25:22.467Z,55.17
2018-06-04T00:27:51.503Z,56.30
2018-06-04T00:30:20.082Z,53.53
2018-06-04T00:32:48.267Z,54.93
2018-06-04T00:35:17.728Z,56.57
2018-06-04T00:37:46.264Z,54.17
2018-06-04T00:40:24.579Z,53.73
2018-06-04T00:42:53.147Z,58.30
2018-06-04T00:45:21.391Z,55.57
2018-06-04T00:47:50.287Z,61.73
2018-06-04T00:50:23.632Z,56.27
2018-06-04T00:52:51.848Z,58.13
2018-06-04T00:55:24.546Z,52.93
2018-06-04T00:57:53.037Z,55.83
2018-06-04T01:00:22.055Z,56.20
2018-06-04T01:02:50.661Z,51.00
2018-06-04T01:05:19.775Z,55.03
2018-06-04T01:07:47.991Z,52.27
2018-06-04T01:10:16.196Z,56.13
2018-06-04T01:12:45.036Z,55.50
2018-06-04T01:15:13.613Z,51.80
2018-06-04T01:17:42.203Z,55.70
2018-06-04T01:20:10.684Z,54.90
2018-06-04T01:22:39.272Z,60.47
2018-06-04T01:25:07.473Z,60.30
2018-06-04T01:27:41.836Z,57.53
2018-06-04T01:30:10.097Z,58.77
2018-06-04T01:32:42.915Z,58.07
2018-06-04T01:35:11.663Z,58.40
2018-06-04T01:37:45.348Z,57.30
2018-06-04T01:40:14.600Z,58.63
2018-06-04T01:42:46.852Z,61.53
2018-06-04T01:45:15.350Z,56.40
2018-06-04T01:47:44.031Z,58.90
2018-06-04T01:50:12.399Z,60.33
2018-06-04T01:52:41.244Z,57.63
2018-06-04T01:55:09.790Z,57.70
2018-06-04T01:57:37.975Z,59.67
2018-06-04T02:00:06.909Z,60.80
2018-06-04T02:02:35.108Z,59.17
2018-06-04T02:05:03.332Z,62.30
2018-06-04T02:07:32.049Z,60.57
2018-06-04T02:10:03.919Z,57.63
2018-06-04T02:12:32.452Z,63.37
2018-06-04T02:15:05.822Z,63.30
2018-06-04T02:17:34.409Z,55.43
2018-06-04T02:22:37.261Z,57.60
2018-06-04T02:25:10.196Z,54.67
2018-06-04T02:27:44.795Z,56.10
2018-06-04T02:30:14.536Z,55.27
2018-06-04T02:32:42.811Z,54.80
2018-06-04T02:35:15.410Z,56.40
2018-06-04T02:37:44.222Z,58.03
2018-06-04T02:40:17.084Z,50.77
2018-06-04T02:42:45.657Z,57.43
2018-06-04T02:45:13.862Z,56.17
2018-06-04T02:47:42.421Z,54.67
2018-06-04T02:50:11.458Z,54.83
2018-06-04T02:52:39.912Z,54.60
2018-06-04T02:55:08.108Z,47.87
2018-06-04T02:57:36.922Z,56.27
2018-06-04T03:00:05.864Z,52.53
2018-06-04T03:02:35.397Z,55.27
2018-06-04T03:05:04.313Z,56.77
2018-06-04T03:07:32.551Z,58.87
2018-06-04T03:10:01.113Z,60.67
2018-06-04T03:12:35.200Z,50.73
2018-06-04T03:15:03.491Z,54.93
2018-06-04T03:17:35.712Z,52.97
2018-06-04T03:20:04.676Z,53.10
2018-06-04T03:22:37.164Z,55.77
2018-06-04T03:25:05.381Z,51.17
2018-06-04T03:27:33.847Z,52.10
2018-06-04T03:30:02.400Z,55.23
2018-06-04T03:32:30.980Z,52.07
2018-06-04T03:34:59.811Z,50.80
2018-06-04T03:37:28.024Z,53.73
2018-06-04T03:39:56.215Z,50.13
2018-06-04T03:42:25.035Z,50.87
2018-06-04T03:44:53.300Z,53.00
2018-06-04T03:47:22.041Z,46.63
2018-06-04T03:49:52.918Z,46.90
2018-06-04T03:52:21.732Z,44.37
2018-06-04T03:54:54.704Z,49.70
2018-06-04T03:57:23.164Z,45.43
2018-06-04T03:59:53.700Z,43.87
2018-06-04T04:02:23.331Z,42.50
2018-06-04T04:04:52.176Z,48.33
2018-06-04T04:07:20.756Z,52.40
2018-06-04T04:09:49.445Z,47.50
2018-06-04T04:12:18.448Z,45.93
2018-06-04T04:14:46.646Z,43.27
2018-06-04T04:17:14.935Z,43.23
2018-06-04T04:19:43.574Z,48.23
2018-06-04T04:22:11.761Z,48.50
2018-06-04T04:24:40.003Z,48.03
2018-06-04T04:27:12.190Z,46.73
2018-06-04T04:29:40.385Z,46.17
2018-06-04T04:34:42.365Z,51.57
2018-06-04T04:37:11.289Z,45.77
2018-06-04T04:39:44.810Z,44.53
2018-06-04T04:44:46.919Z,46.30
2018-06-04T04:47:19.075Z,51.47
2018-06-04T04:49:47.884Z,48.40
2018-06-04T04:52:16.362Z,49.13
2018-06-04T04:54:44.547Z,38.77
2018-06-04T04:57:12.991Z,45.83
2018-06-04T04:59:41.228Z,43.30
2018-06-04T05:02:09.725Z,40.77
2018-06-04T05:04:38.956Z,43.87
2018-06-04T05:07:08.371Z,44.50
2018-06-04T05:09:37.000Z,45.97
2018-06-04T05:12:05.844Z,44.37
2018-06-04T05:14:36.140Z,49.83
2018-06-04T05:17:04.785Z,44.43
2018-06-04T05:19:42.542Z,46.57
2018-06-04T05:22:11.121Z,46.23
2018-06-04T05:24:41.220Z,48.77
2018-06-04T05:27:09.773Z,50.10
2018-06-04T05:29:42.907Z,44.70
2018-06-04T05:32:11.490Z,43.43
2018-06-04T05:34:45.333Z,49.33
2018-06-04T05:37:13.924Z,44.17
2018-06-04T05:39:46.311Z,44.47
2018-06-04T05:42:14.881Z,43.67
2018-06-04T05:44:47.281Z,41.70
2018-06-04T05:47:15.899Z,40.33
2018-06-04T05:49:44.569Z,44.37
2018-06-04T05:52:13.092Z,41.00
2018-06-04T05:54:41.341Z,41.93
2018-06-04T05:57:09.945Z,44.88
2018-06-04T05:59:38.515Z,40.88
2018-06-04T06:02:06.725Z,37.50
2018-06-04T06:04:35.522Z,37.93
2018-06-04T06:07:04.061Z,34.58
2018-06-04T06:09:32.271Z,32.30
2018-06-04T06:12:06.504Z,32.03
2018-06-04T06:14:34.705Z,32.13
2018-06-04T06:17:07.773Z,28.00
2018-06-04T06:19:36.369Z,30.88
2018-06-04T06:22:04.607Z,30.60
2018-06-04T06:24:33.269Z,30.40
2018-06-04T06:27:02.173Z,31.15
2018-06-04T06:29:34.530Z,30.95
2018-06-04T06:32:03.108Z,34.05
2018-06-04T06:34:32.973Z,31.05
2018-06-04T06:37:01.554Z,29.98
2018-06-04T06:39:29.764Z,31.57
2018-06-04T06:41:58.594Z,30.05
2018-06-04T06:44:27.158Z,29.72
2018-06-04T06:46:55.404Z,32.17
2018-06-04T06:49:27.179Z,29.77
2018-06-04T06:51:55.772Z,32.05
2018-06-04T06:54:27.534Z,35.60
2018-06-04T06:56:56.595Z,33.90
2018-06-04T06:59:29.138Z,30.23
2018-06-04T07:01:57.675Z,30.50
2018-06-04T07:04:32.364Z,34.10
2018-06-04T07:07:00.961Z,32.38
2018-06-04T07:09:33.148Z,33.55
2018-06-04T07:12:02.492Z,32.67
2018-06-04T07:14:36.117Z,32.95
2018-06-04T07:17:04.905Z,31.42
2018-06-04T07:19:38.847Z,34.60
2018-06-04T07:22:09.274Z,34.10
2018-06-04T07:24:41.422Z,33.60
2018-06-04T07:27:11.327Z,38.13
2018-06-04T07:29:44.145Z,32.75
2018-06-04T07:32:12.756Z,31.90
2018-06-04T07:34:46.557Z,28.90
2018-06-04T07:37:17.289Z,30.40
2018-06-04T07:39:50.232Z,25.12
2018-06-04T07:42:20.072Z,29.98
2018-06-04T07:44:52.938Z,26.65
2018-06-04T07:47:23.258Z,28.27
2018-06-04T07:49:56.302Z,27.40
2018-06-04T07:52:25.907Z,27.58
2018-06-04T07:54:58.314Z,25.88
2018-06-04T07:57:27.407Z,28.12
2018-06-04T08:00:08.589Z,28.98
2018-06-04T08:02:37.766Z,28.67
2018-06-04T08:05:07.448Z,27.70
2018-06-04T08:07:36.109Z,27.85
2018-06-04T08:10:05.881Z,27.90
2018-06-04T08:12:34.177Z,32.45
2018-06-04T08:15:12.129Z,26.23
2018-06-04T08:17:42.488Z,27.82
2018-06-04T08:20:12.924Z,30.55
2018-06-04T08:22:41.627Z,27.48
2018-06-04T08:25:14.782Z,33.02
2018-06-04T08:27:43.664Z,32.53
2018-06-04T08:30:15.982Z,32.90
2018-06-04T08:32:44.707Z,28.47
2018-06-04T08:35:17.445Z,31.10
2018-06-04T08:37:46.187Z,30.45
2018-06-04T08:40:19.852Z,26.85
2018-06-04T08:42:48.068Z,27.87
2018-06-04T08:45:29.967Z,28.23
2018-06-04T08:47:58.971Z,26.75
2018-06-04T08:50:27.578Z,28.50
2018-06-04T08:52:56.153Z,30.92
2018-06-04T08:55:28.526Z,27.32
2018-06-04T08:57:57.065Z,26.62
2018-06-04T09:00:28.976Z,23.45
2018-06-04T09:02:57.861Z,21.90
2018-06-04T09:05:32.030Z,23.00
2018-06-04T09:08:00.291Z,22.07
2018-06-04T09:10:41.628Z,21.87
2018-06-04T09:13:09.863Z,20.82
2018-06-04T09:15:38.823Z,23.22
2018-06-04T09:18:07.130Z,20.97
2018-06-04T09:20:48.443Z,24.05
2018-06-04T09:23:17.065Z,22.45
2018-06-04T09:25:45.785Z,18.70
2018-06-04T09:28:14.414Z,24.15
2018-06-04T09:30:46.188Z,20.88
2018-06-04T09:33:14.850Z,20.88
2018-06-04T09:35:47.057Z,20.45
2018-06-04T09:38:15.312Z,21.17
2018-06-04T09:40:48.822Z,18.32
2018-06-04T09:43:17.066Z,20.12
2018-06-04T09:45:52.375Z,18.32
2018-06-04T09:48:21.062Z,22.30
2018-06-04T09:50:55.824Z,17.80
2018-06-04T09:53:24.498Z,19.15
2018-06-04T09:55:57.241Z,20.40
2018-06-04T09:58:25.756Z,21.12
2018-06-04T10:00:59.165Z,18.98
2018-06-04T10:03:28.139Z,19.32
2018-06-04T10:06:00.845Z,17.00
2018-06-04T10:08:30.579Z,15.32
2018-06-04T10:13:32.480Z,19.20
2018-06-04T10:18:37.084Z,20.40
2018-06-04T10:21:11.818Z,20.00
2018-06-04T10:23:41.020Z,20.25
2018-06-04T10:26:22.340Z,19.37
2018-06-04T10:28:51.317Z,17.17
2018-06-04T10:31:19.949Z,14.90
2018-06-04T10:33:48.665Z,14.70
2018-06-04T10:36:18.368Z,15.88
2018-06-04T10:38:46.933Z,15.75
2018-06-04T10:41:19.364Z,17.92
2018-06-04T10:43:48.312Z,21.07
2018-06-04T10:48:59.356Z,18.25
2018-06-04T10:51:27.650Z,14.83
2018-06-04T10:53:55.872Z,18.73
2018-06-04T10:56:28.627Z,17.73
2018-06-04T10:58:56.871Z,14.23
2018-06-04T11:01:29.936Z,11.43
2018-06-04T11:03:58.970Z,16.25
2018-06-04T11:06:32.133Z,13.65
2018-06-04T11:09:01.095Z,14.25
2018-06-04T11:11:34.224Z,17.92
2018-06-04T11:14:02.465Z,18.77
2018-06-04T11:16:37.632Z,15.32
2018-06-04T11:21:48.369Z,15.10
2018-06-04T11:24:18.366Z,14.20
2018-06-04T11:26:53.227Z,12.37
2018-06-04T11:29:21.496Z,15.45
2018-06-04T11:31:50.181Z,14.13
2018-06-04T11:34:18.499Z,14.43
2018-06-04T11:36:47.521Z,17.60
2018-06-04T11:39:16.341Z,16.10
2018-06-04T11:41:58.618Z,19.17
2018-06-04T11:44:30.676Z,18.15
2018-06-04T11:46:59.463Z,14.75
2018-06-04T11:49:27.756Z,14.23
2018-06-04T11:51:56.362Z,15.75
2018-06-04T11:54:25.248Z,15.45
2018-06-04T11:56:59.380Z,13.03
2018-06-04T11:59:30.294Z,13.85
2018-06-04T12:02:02.204Z,14.00
2018-06-04T12:04:30.559Z,12.47
2018-06-04T12:07:03.801Z,14.35
2018-06-04T12:09:32.159Z,11.70
2018-06-04T12:12:14.201Z,13.55
2018-06-04T12:14:43.967Z,11.20
2018-06-04T12:17:12.448Z,12.65
2018-06-04T12:19:41.151Z,12.25
2018-06-04T12:22:12.426Z,15.88
2018-06-04T12:24:41.037Z,13.70
2018-06-04T12:27:18.135Z,15.75
2018-06-04T12:29:47.104Z,9.33
2018-06-04T12:32:19.343Z,10.63
2018-06-04T12:34:48.591Z,11.28
2018-06-04T12:37:20.861Z,10.78
2018-06-04T12:39:49.696Z,11.05
2018-06-04T12:42:23.394Z,11.45
2018-06-04T12:44:51.927Z,11.25
2018-06-04T12:47:23.761Z,12.73
2018-06-04T12:49:53.375Z,11.68
2018-06-04T12:52:26.500Z,15.68
2018-06-04T12:54:55.920Z,9.33
2018-06-04T12:57:38.163Z,9.20
2018-06-04T13:00:08.731Z,10.90
2018-06-04T13:02:37.035Z,10.93
2018-06-04T13:05:06.026Z,8.00
2018-06-04T13:07:34.587Z,10.68
2018-06-04T13:10:04.318Z,11.45
2018-06-04T13:12:36.436Z,12.35
2018-06-04T13:15:07.987Z,10.32
2018-06-04T13:17:39.363Z,10.10
2018-06-04T13:20:08.718Z,9.00
2018-06-04T13:22:40.510Z,9.20
2018-06-04T13:25:11.173Z,12.07
2018-06-04T13:27:48.183Z,8.85
2018-06-04T13:30:19.283Z,8.08
2018-06-04T13:32:48.219Z,7.95
2018-06-04T13:35:19.961Z,8.38
2018-06-04T13:37:51.895Z,11.08
2018-06-04T13:40:21.269Z,7.15
2018-06-04T13:42:50.896Z,8.73
2018-06-04T13:45:19.783Z,9.05
2018-06-04T13:48:01.665Z,8.63
2018-06-04T13:50:33.168Z,10.80
2018-06-04T13:53:02.248Z,9.63
2018-06-04T13:55:30.504Z,8.43
2018-06-04T13:57:58.944Z,8.13
2018-06-04T14:00:27.979Z,10.95
2018-06-04T14:03:01.696Z,10.50
2018-06-04T14:05:31.203Z,10.00
2018-06-04T14:08:05.273Z,7.37
2018-06-04T14:10:34.387Z,7.67
2018-06-04T14:13:16.642Z,13.45
2018-06-04T14:15:45.719Z,14.33
2018-06-04T14:18:15.768Z,11.65
2018-06-04T14:20:44.681Z,12.50
2018-06-04T14:23:13.505Z,15.18
2018-06-04T14:25:44.914Z,17.45
2018-06-04T14:28:18.203Z,20.60
2018-06-04T14:30:46.586Z,21.42
2018-06-04T14:33:22.734Z,22.98
2018-06-04T14:35:58.599Z,20.77
2018-06-04T14:38:28.257Z,23.00
2018-06-04T14:41:01.247Z,23.47
2018-06-04T14:43:31.383Z,20.60
2018-06-04T14:46:00.234Z,22.35
2018-06-04T14:48:29.414Z,21.65
2018-06-04T14:51:01.681Z,22.73
2018-06-04T14:53:30.859Z,22.95
2018-06-04T14:56:02.008Z,21.05
2018-06-04T14:58:39.690Z,23.83
2018-06-04T15:04:06.189Z,23.12
2018-06-04T15:06:36.390Z,23.42
2018-06-04T15:09:08.302Z,17.90
2018-06-04T15:11:37.260Z,20.37
2018-06-04T15:14:06.716Z,22.48
2018-06-04T15:16:40.312Z,26.23
2018-06-04T15:19:09.088Z,23.60
2018-06-04T15:21:40.232Z,25.30
2018-06-04T15:24:08.519Z,27.73
2018-06-04T15:26:41.441Z,25.52
2018-06-04T15:29:09.994Z,24.95
2018-06-04T15:31:45.578Z,22.27
2018-06-04T15:34:14.444Z,23.98
2018-06-04T15:36:57.121Z,28.20
2018-06-04T15:39:27.335Z,26.85
2018-06-04T15:41:56.448Z,24.07
2018-06-04T15:44:25.284Z,24.12
2018-06-04T15:46:56.640Z,24.55
2018-06-04T15:49:26.175Z,26.75
2018-06-04T15:51:56.627Z,25.52
2018-06-04T15:54:27.523Z,29.80
2018-06-04T15:56:59.151Z,26.77
2018-06-04T15:59:27.444Z,25.05
2018-06-04T16:02:08.434Z,28.30
2018-06-04T16:04:36.706Z,29.35
2018-06-04T16:07:05.926Z,29.70
2018-06-04T16:09:34.226Z,29.50
2018-06-04T16:12:06.209Z,29.75
2018-06-04T16:14:35.569Z,28.45
2018-06-04T16:17:13.687Z,34.78
2018-06-04T16:19:45.928Z,29.05
2018-06-04T16:22:15.721Z,27.90
2018-06-04T16:24:48.254Z,29.20
2018-06-04T16:27:18.234Z,28.00
2018-06-04T16:29:47.052Z,27.77
2018-06-04T16:32:18.620Z,24.05
2018-06-04T16:34:50.916Z,25.37
2018-06-04T16:37:20.322Z,29.07
2018-06-04T16:39:51.719Z,27.95
2018-06-04T16:42:25.702Z,33.15
2018-06-04T16:44:55.706Z,34.00
2018-06-04T16:47:27.743Z,29.72
2018-06-04T16:50:00.611Z,29.60
2018-06-04T16:52:32.218Z,31.93
2018-06-04T16:55:02.133Z,32.73
2018-06-04T16:57:33.220Z,31.30
2018-06-04T17:00:02.503Z,33.90
2018-06-04T17:02:31.220Z,34.58
2018-06-04T17:05:04.181Z,31.55
2018-06-04T17:07:33.089Z,32.05
2018-06-04T17:10:02.195Z,31.07
2018-06-04T17:12:44.100Z,32.20
2018-06-04T17:17:53.967Z,30.63
2018-06-04T17:20:26.326Z,31.12
2018-06-04T17:23:06.249Z,30.72
2018-06-04T17:25:40.017Z,32.40
2018-06-04T17:28:10.136Z,33.93
2018-06-04T17:30:45.038Z,32.50
2018-06-04T17:33:18.107Z,32.85
2018-06-04T17:35:52.459Z,32.57
2018-06-04T17:38:52.186Z,31.07
2018-06-04T17:41:21.331Z,32.10
2018-06-04T17:43:50.197Z,35.77
2018-06-04T17:46:19.359Z,31.20
2018-06-04T17:49:00.514Z,35.20
2018-06-04T17:51:29.215Z,33.00
2018-06-04T17:53:58.576Z,30.80
2018-06-04T17:56:27.289Z,34.17
2018-06-04T17:58:57.767Z,29.73
2018-06-04T18:01:27.856Z,29.57
2018-06-04T18:04:01.850Z,31.63
2018-06-04T18:06:31.929Z,31.57
2018-06-04T18:09:09.343Z,27.93
2018-06-04T18:11:38.710Z,31.00
2018-06-04T18:14:08.575Z,29.10
2018-06-04T18:16:38.414Z,30.70
2018-06-04T18:19:10.633Z,29.00
2018-06-04T18:21:41.822Z,27.53
2018-06-04T18:24:12.567Z,28.30
2018-06-04T18:26:41.807Z,30.20
2018-06-04T18:29:14.202Z,31.57
2018-06-04T18:31:46.083Z,28.57
2018-06-04T18:34:15.699Z,27.43
2018-06-04T18:36:46.510Z,28.30
2018-06-04T18:39:27.650Z,28.80
2018-06-04T18:41:57.223Z,31.13
2018-06-04T18:44:25.991Z,27.83
2018-06-04T18:46:56.696Z,27.17
2018-06-04T18:49:26.682Z,26.60
2018-06-04T18:51:56.223Z,28.63
2018-06-04T18:54:28.631Z,31.37
2018-06-04T18:56:57.684Z,25.13
2018-06-04T18:59:31.416Z,29.77
2018-06-04T19:02:00.176Z,27.40
2018-06-04T19:04:34.104Z,27.67
2018-06-04T19:07:03.360Z,27.60
2018-06-04T19:09:34.222Z,28.93
2018-06-04T19:12:02.612Z,24.80
2018-06-04T19:14:38.203Z,24.13
2018-06-04T19:17:09.163Z,24.67
2018-06-04T19:19:39.074Z,25.33
2018-06-04T19:22:09.086Z,25.70
2018-06-04T19:24:42.828Z,24.80
2018-06-04T19:27:12.175Z,25.87
2018-06-04T19:29:46.186Z,24.77
2018-06-04T19:32:18.194Z,22.77
2018-06-04T19:34:49.240Z,24.90
2018-06-04T19:37:19.576Z,24.37
2018-06-04T19:39:49.606Z,26.67
2018-06-04T19:42:19.309Z,23.80
2018-06-04T19:44:54.108Z,24.43
2018-06-04T19:47:27.071Z,23.63
2018-06-04T19:49:56.682Z,23.60
2018-06-04T19:52:26.187Z,22.73
2018-06-04T19:54:57.682Z,25.37
2018-06-04T19:57:26.592Z,25.20
2018-06-04T19:59:59.192Z,24.57
2018-06-04T20:02:27.743Z,27.30
2018-06-04T20:05:00.935Z,26.53
2018-06-04T20:07:30.579Z,26.43
2018-06-04T20:10:09.254Z,24.13
2018-06-04T20:12:40.475Z,23.90
2018-06-04T20:15:10.410Z,22.77
2018-06-04T20:17:39.808Z,24.13
2018-06-04T20:20:16.590Z,22.97
2018-06-04T20:22:45.226Z,24.97
2018-06-04T20:25:15.331Z,23.67
2018-06-04T20:27:44.213Z,24.10
2018-06-04T20:30:13.747Z,23.07
2018-06-04T20:32:43.000Z,25.23
2018-06-04T20:35:19.727Z,26.90
2018-06-04T20:37:48.484Z,23.17
2018-06-04T20:40:20.289Z,23.97
2018-06-04T20:42:49.562Z,25.00
2018-06-04T20:45:22.682Z,27.40
2018-06-04T20:47:52.599Z,24.60
2018-06-04T20:50:28.339Z,25.20
2018-06-04T20:52:58.048Z,26.17
2018-06-04T20:55:26.668Z,25.43
2018-06-04T20:57:55.318Z,25.40
2018-06-04T21:00:36.068Z,25.23
2018-06-04T21:03:07.574Z,26.03
2018-06-04T21:05:38.241Z,27.47
2018-06-04T21:08:08.209Z,26.67
2018-06-04T21:10:39.176Z,30.47
2018-06-04T21:13:07.930Z,26.30
2018-06-04T21:15:40.360Z,30.63
2018-06-04T21:18:09.360Z,30.83
2018-06-04T21:20:37.946Z,26.23
2018-06-04T21:23:06.794Z,33.03
2018-06-04T21:25:48.157Z,25.73
2018-06-04T21:28:17.204Z,26.70
2018-06-04T21:30:45.907Z,28.83
2018-06-04T21:33:16.092Z,34.03
2018-06-04T21:35:45.032Z,27.87
2018-06-04T21:38:14.110Z,29.13
2018-06-04T21:40:50.002Z,26.87
2018-06-04T21:43:19.180Z,29.17
2018-06-04T21:45:51.994Z,29.83
2018-06-04T21:48:20.683Z,27.23
2018-06-04T21:51:02.290Z,23.77
2018-06-04T21:53:33.158Z,29.50
2018-06-04T21:56:02.227Z,26.90
2018-06-04T21:58:30.896Z,25.33
2018-06-04T22:01:01.132Z,27.03
2018-06-04T22:03:31.100Z,26.30
2018-06-04T22:06:01.197Z,28.27
2018-06-04T22:08:29.580Z,22.90
2018-06-04T22:11:11.527Z,25.17
2018-06-04T22:13:40.671Z,25.93
2018-06-04T22:16:10.607Z,25.23
2018-06-04T22:18:43.138Z,31.77
2018-06-04T22:21:14.596Z,27.53
2018-06-04T22:23:43.225Z,28.53
2018-06-04T22:26:14.026Z,29.23
2018-06-04T22:28:45.600Z,28.20
2018-06-04T22:31:16.474Z,31.07
2018-06-04T22:33:45.692Z,31.93
2018-06-04T22:36:18.658Z,28.37
2018-06-04T22:38:47.900Z,32.10
2018-06-04T22:41:21.755Z,35.53
2018-06-04T22:43:50.393Z,32.00
2018-06-04T22:46:22.536Z,31.50
2018-06-04T22:48:51.192Z,32.80
2018-06-04T22:51:22.472Z,35.47
2018-06-04T22:53:50.993Z,31.70
2018-06-04T22:56:25.706Z,32.73
2018-06-04T22:58:55.695Z,37.73
2018-06-04T23:01:36.654Z,35.77
2018-06-04T23:04:06.236Z,37.57
2018-06-04T23:06:36.177Z,33.87
2018-06-04T23:09:09.232Z,37.27
2018-06-04T23:11:38.325Z,34.77
2018-06-04T23:14:07.465Z,38.07
2018-06-04T23:16:37.209Z,43.17
2018-06-04T23:19:07.298Z,40.53
2018-06-04T23:21:36.952Z,40.03
2018-06-04T23:24:05.663Z,41.33
2018-06-04T23:26:39.083Z,42.10
2018-06-04T23:29:07.356Z,39.60
2018-06-04T23:31:40.588Z,41.53
2018-06-04T23:34:09.554Z,42.33
2018-06-04T23:36:43.524Z,40.90
2018-06-04T23:39:12.329Z,42.50
2018-06-04T23:41:47.793Z,45.37
2018-06-04T23:44:16.662Z,42.20
2018-06-04T23:46:49.445Z,41.77
2018-06-04T23:49:18.595Z,42.13
2018-06-04T23:51:51.855Z,42.13
2018-06-04T23:54:20.487Z,43.30
2018-06-04T23:56:53.419Z,42.53
2018-06-04T23:59:21.818Z,44.90
